sensor_id;sensor_type;location;lat;lon;timestamp;pressure;altitude;pressure_sealevel;temperature;humidity
7050;BME280;22263;52.260;10.548;2023-03-25T00:01:20;99145.84;;;11.10;100.00
7050;BME280;22263;52.260;10.548;2023-03-25T00:03:51;99149.81;;;11.09;100.00
7050;BME280;22263;52.260;10.548;2023-03-25T00:06:22;99147.81;;;11.10;100.00
7050;BME280;22263;52.260;10.548;2023-03-25T00:08:51;99149.47;;;11.04;100.00
7050;BME280;22263;52.260;10.548;2023-03-25T00:11:20;99139.97;;;11.05;100.00
7050;BME280;22263;52.260;10.548;2023-03-25T00:13:48;99123.03;;;11.03;100.00
7050;BME280;22263;52.260;10.548;2023-03-25T00:16:17;99134.56;;;10.98;100.00
7050;BME280;22263;52.260;10.548;2023-03-25T00:18:46;99130.56;;;10.99;100.00
7050;BME280;22263;52.260;10.548;2023-03-25T00:21:15;99128.88;;;11.08;100.00
7050;BME280;22263;52.260;10.548;2023-03-25T00:23:46;99120.16;;;11.10;100.00
7050;BME280;22263;52.260;10.548;2023-03-25T00:26:14;99115.53;;;11.00;100.00
7050;BME280;22263;52.260;10.548;2023-03-25T00:28:43;99128.19;;;11.01;100.00
7050;BME280;22263;52.260;10.548;2023-03-25T00:31:13;99129.38;;;11.00;100.00
7050;BME280;22263;52.260;10.548;2023-03-25T00:33:41;99128.19;;;11.01;100.00
7050;BME280;22263;52.260;10.548;2023-03-25T00:36:10;99117.56;;;10.96;100.00
7050;BME280;22263;52.260;10.548;2023-03-25T00:38:41;99108.50;;;10.95;100.00
7050;BME280;22263;52.260;10.548;2023-03-25T00:41:14;99118.75;;;10.94;100.00
7050;BME280;22263;52.260;10.548;2023-03-25T00:43:48;99118.75;;;10.94;100.00
7050;BME280;22263;52.260;10.548;2023-03-25T00:46:18;99124.22;;;11.02;100.00
7050;BME280;22263;52.260;10.548;2023-03-25T00:48:47;99128.19;;;11.01;100.00
7050;BME280;22263;52.260;10.548;2023-03-25T00:51:18;99117.13;;;11.01;100.00
7050;BME280;22263;52.260;10.548;2023-03-25T00:53:49;99114.34;;;11.01;100.00
7050;BME280;22263;52.260;10.548;2023-03-25T00:56:20;99122.66;;;11.01;100.00
7050;BME280;22263;52.260;10.548;2023-03-25T00:58:49;99123.50;;;10.98;100.00
7050;BME280;22263;52.260;10.548;2023-03-25T01:01:20;99119.09;;;11.00;100.00
7050;BME280;22263;52.260;10.548;2023-03-25T01:03:55;99128.69;;;10.92;100.00
7050;BME280;22263;52.260;10.548;2023-03-25T01:06:30;99123.22;;;10.88;100.00
7050;BME280;22263;52.260;10.548;2023-03-25T01:09:02;99118.13;;;10.83;100.00
7050;BME280;22263;52.260;10.548;2023-03-25T01:11:33;99118.59;;;10.78;100.00
7050;BME280;22263;52.260;10.548;2023-03-25T01:14:05;99114.31;;;10.70;100.00
7050;BME280;22263;52.260;10.548;2023-03-25T01:16:34;99115.03;;;10.78;100.00
7050;BME280;22263;52.260;10.548;2023-03-25T01:19:02;99108.00;;;10.73;100.00
7050;BME280;22263;52.260;10.548;2023-03-25T01:21:31;99109.63;;;10.67;100.00
7050;BME280;22263;52.260;10.548;2023-03-25T01:24:07;99110.50;;;10.61;100.00
7050;BME280;22263;52.260;10.548;2023-03-25T01:26:38;99116.81;;;10.61;100.00
7050;BME280;22263;52.260;10.548;2023-03-25T01:29:09;99104.63;;;10.55;100.00
7050;BME280;22263;52.260;10.548;2023-03-25T01:31:40;99114.59;;;10.49;100.00
7050;BME280;22263;52.260;10.548;2023-03-25T01:34:09;99111.03;;;10.48;100.00
7050;BME280;22263;52.260;10.548;2023-03-25T01:36:41;99117.38;;;10.45;100.00
7050;BME280;22263;52.260;10.548;2023-03-25T01:39:12;99117.38;;;10.45;100.00
7050;BME280;22263;52.260;10.548;2023-03-25T01:41:46;99113.84;;;10.41;100.00
7050;BME280;22263;52.260;10.548;2023-03-25T01:47:16;99117.13;;;10.33;100.00
7050;BME280;22263;52.260;10.548;2023-03-25T01:49:45;99107.63;;;10.34;100.00
7050;BME280;22263;52.260;10.548;2023-03-25T01:52:17;99115.13;;;10.33;100.00
7050;BME280;22263;52.260;10.548;2023-03-25T01:54:50;99109.22;;;10.35;100.00
7050;BME280;22263;52.260;10.548;2023-03-25T01:57:25;99107.22;;;10.35;100.00
7050;BME280;22263;52.260;10.548;2023-03-25T01:59:56;99106.78;;;10.40;100.00
7050;BME280;22263;52.260;10.548;2023-03-25T02:02:24;99113.06;;;10.41;100.00
7050;BME280;22263;52.260;10.548;2023-03-25T02:05:02;99099.56;;;10.50;100.00
7050;BME280;22263;52.260;10.548;2023-03-25T02:07:37;99092.53;;;10.42;100.00
7050;BME280;22263;52.260;10.548;2023-03-25T02:10:09;99102.75;;;10.48;100.00
7050;BME280;22263;52.260;10.548;2023-03-25T02:12:43;99090.16;;;10.44;100.00
7050;BME280;22263;52.260;10.548;2023-03-25T02:15:14;99099.53;;;10.54;100.00
7050;BME280;22263;52.260;10.548;2023-03-25T02:18:00;99108.22;;;10.52;100.00
7050;BME280;22263;52.260;10.548;2023-03-25T02:20:49;99092.44;;;10.53;100.00
7050;BME280;22263;52.260;10.548;2023-03-25T02:23:43;99090.44;;;10.53;100.00
7050;BME280;22263;52.260;10.548;2023-03-25T02:26:57;99089.16;;;10.61;100.00
7050;BME280;22263;52.260;10.548;2023-03-25T02:30:03;99099.03;;;10.62;100.00
7050;BME280;22263;52.260;10.548;2023-03-25T02:33:11;99084.47;;;10.58;100.00
7050;BME280;22263;52.260;10.548;2023-03-25T02:35:58;99096.25;;;10.62;100.00
7050;BME280;22263;52.260;10.548;2023-03-25T02:38:40;99091.22;;;10.54;100.00
7050;BME280;22263;52.260;10.548;2023-03-25T02:41:16;99093.91;;;10.61;100.00
7050;BME280;22263;52.260;10.548;2023-03-25T02:43:54;99083.56;;;10.65;100.00
7050;BME280;22263;52.260;10.548;2023-03-25T02:46:28;99084.88;;;10.57;100.00
7050;BME280;22263;52.260;10.548;2023-03-25T02:49:00;99082.91;;;10.57;100.00
7050;BME280;22263;52.260;10.548;2023-03-25T02:51:34;99088.41;;;10.57;100.00
7050;BME280;22263;52.260;10.548;2023-03-25T02:54:10;99085.72;;;10.54;100.00
7050;BME280;22263;52.260;10.548;2023-03-25T02:56:42;99080.25;;;10.46;100.00
7050;BME280;22263;52.260;10.548;2023-03-25T02:59:12;99083.06;;;10.43;100.00
7050;BME280;22263;52.260;10.548;2023-03-25T03:01:42;99082.38;;;10.35;100.00
7050;BME280;22263;52.260;10.548;2023-03-25T03:04:10;99083.16;;;10.32;100.00
7050;BME280;22263;52.260;10.548;2023-03-25T03:06:40;99071.38;;;10.28;100.00
7050;BME280;22263;52.260;10.548;2023-03-25T03:09:19;99071.72;;;10.34;100.00
7050;BME280;22263;52.260;10.548;2023-03-25T03:11:57;99075.22;;;10.38;100.00
7050;BME280;22263;52.260;10.548;2023-03-25T03:14:52;99075.31;;;10.27;100.00
7050;BME280;22263;52.260;10.548;2023-03-25T03:17:26;99081.16;;;10.36;100.00
7050;BME280;22263;52.260;10.548;2023-03-25T03:20:00;99087.91;;;10.32;100.00
7050;BME280;22263;52.260;10.548;2023-03-25T03:22:39;99081.97;;;10.33;100.00
7050;BME280;22263;52.260;10.548;2023-03-25T03:25:19;99085.09;;;10.39;100.00
7050;BME280;22263;52.260;10.548;2023-03-25T03:27:53;99071.72;;;10.34;100.00
7050;BME280;22263;52.260;10.548;2023-03-25T03:30:28;99080.50;;;10.25;100.00
7050;BME280;22263;52.260;10.548;2023-03-25T03:33:04;99083.59;;;10.31;100.00
7050;BME280;22263;52.260;10.548;2023-03-25T03:35:38;99081.19;;;10.33;100.00
7050;BME280;22263;52.260;10.548;2023-03-25T03:38:11;99088.34;;;10.27;100.00
7050;BME280;22263;52.260;10.548;2023-03-25T03:40:46;99086.03;;;10.25;100.00
7050;BME280;22263;52.260;10.548;2023-03-25T03:43:22;99090.75;;;10.25;100.00
7050;BME280;22263;52.260;10.548;2023-03-25T03:45:56;99088.50;;;10.16;100.00
7050;BME280;22263;52.260;10.548;2023-03-25T03:48:28;99094.38;;;10.15;100.00
7050;BME280;22263;52.260;10.548;2023-03-25T03:51:02;99094.44;;;10.11;100.00
7050;BME280;22263;52.260;10.548;2023-03-25T03:53:37;99090.41;;;10.19;100.00
7050;BME280;22263;52.260;10.548;2023-03-25T03:56:12;99093.56;;;10.21;100.00
7050;BME280;22263;52.260;10.548;2023-03-25T03:58:44;99091.25;;;10.16;100.00
7050;BME280;22263;52.260;10.548;2023-03-25T04:01:16;99092.41;;;10.15;100.00
7050;BME280;22263;52.260;10.548;2023-03-25T04:03:57;99091.59;;;10.18;100.00
7050;BME280;22263;52.260;10.548;2023-03-25T04:06:31;99099.53;;;10.13;100.00
7050;BME280;22263;52.260;10.548;2023-03-25T04:09:04;99098.41;;;10.06;100.00
7050;BME280;22263;52.260;10.548;2023-03-25T04:11:42;99099.94;;;10.11;100.00
7050;BME280;22263;52.260;10.548;2023-03-25T04:14:12;99093.69;;;10.07;100.00
7050;BME280;22263;52.260;10.548;2023-03-25T04:16:41;99092.50;;;10.04;100.00
7050;BME280;22263;52.260;10.548;2023-03-25T04:19:11;99092.53;;;10.01;100.00
7050;BME280;22263;52.260;10.548;2023-03-25T04:21:44;99096.59;;;9.89;100.00
7050;BME280;22263;52.260;10.548;2023-03-25T04:24:13;99095.41;;;9.90;100.00
7050;BME280;22263;52.260;10.548;2023-03-25T04:26:44;99076.47;;;9.92;100.00
7050;BME280;22263;52.260;10.548;2023-03-25T04:29:14;99098.22;;;9.83;100.00
7050;BME280;22263;52.260;10.548;2023-03-25T04:31:44;99095.88;;;9.82;100.00
7050;BME280;22263;52.260;10.548;2023-03-25T04:34:15;99095.97;;;9.71;100.00
7050;BME280;22263;52.260;10.548;2023-03-25T04:36:45;99098.72;;;9.71;100.00
7050;BME280;22263;52.260;10.548;2023-03-25T04:39:16;99096.78;;;9.68;100.00
7050;BME280;22263;52.260;10.548;2023-03-25T04:41:50;99095.56;;;9.69;100.00
7050;BME280;22263;52.260;10.548;2023-03-25T04:44:19;99096.81;;;9.61;100.00
7050;BME280;22263;52.260;10.548;2023-03-25T04:46:51;99087.72;;;9.68;100.00
7050;BME280;22263;52.260;10.548;2023-03-25T04:49:22;99087.72;;;9.68;100.00
7050;BME280;22263;52.260;10.548;2023-03-25T04:51:52;99090.53;;;9.60;100.00
7050;BME280;22263;52.260;10.548;2023-03-25T04:54:22;99092.13;;;9.58;100.00
7050;BME280;22263;52.260;10.548;2023-03-25T04:56:53;99100.34;;;9.65;100.00
7050;BME280;22263;52.260;10.548;2023-03-25T04:59:22;99093.25;;;9.64;100.00
7050;BME280;22263;52.260;10.548;2023-03-25T05:01:52;99090.47;;;9.68;100.00
7050;BME280;22263;52.260;10.548;2023-03-25T05:04:20;99095.56;;;9.69;100.00
7050;BME280;22263;52.260;10.548;2023-03-25T05:06:50;99095.16;;;9.71;100.00
7050;BME280;22263;52.260;10.548;2023-03-25T05:09:19;99093.16;;;9.75;100.00
7050;BME280;22263;52.260;10.548;2023-03-25T05:11:51;99095.53;;;9.76;100.00
7050;BME280;22263;52.260;10.548;2023-03-25T05:14:23;99098.25;;;9.80;100.00
7050;BME280;22263;52.260;10.548;2023-03-25T05:16:51;99109.72;;;9.75;100.00
7050;BME280;22263;52.260;10.548;2023-03-25T05:19:25;99102.59;;;9.81;100.00
7050;BME280;22263;52.260;10.548;2023-03-25T05:21:56;99097.53;;;9.72;100.00
7050;BME280;22263;52.260;10.548;2023-03-25T05:24:26;99106.75;;;9.51;100.00
7050;BME280;22263;52.260;10.548;2023-03-25T05:26:57;99111.38;;;9.10;100.00
7050;BME280;22263;52.260;10.548;2023-03-25T05:29:29;99115.03;;;8.79;100.00
7050;BME280;22263;52.260;10.548;2023-03-25T05:31:59;99126.16;;;8.54;100.00
7050;BME280;22263;52.260;10.548;2023-03-25T05:34:27;99141.13;;;8.46;100.00
7050;BME280;22263;52.260;10.548;2023-03-25T05:36:56;99149.84;;;8.34;100.00
7050;BME280;22263;52.260;10.548;2023-03-25T05:39:26;99159.25;;;8.25;100.00
7050;BME280;22263;52.260;10.548;2023-03-25T05:41:54;99158.47;;;8.18;100.00
7050;BME280;22263;52.260;10.548;2023-03-25T05:44:29;99157.69;;;8.14;100.00
7050;BME280;22263;52.260;10.548;2023-03-25T05:46:58;99154.56;;;8.05;100.00
7050;BME280;22263;52.260;10.548;2023-03-25T05:49:27;99153.75;;;8.08;100.00
7050;BME280;22263;52.260;10.548;2023-03-25T05:51:55;99161.59;;;8.06;100.00
7050;BME280;22263;52.260;10.548;2023-03-25T05:54:27;99168.72;;;8.10;100.00
7050;BME280;22263;52.260;10.548;2023-03-25T05:56:55;99163.59;;;8.09;100.00
7050;BME280;22263;52.260;10.548;2023-03-25T05:59:24;99174.59;;;8.09;100.00
7050;BME280;22263;52.260;10.548;2023-03-25T06:01:54;99182.84;;;8.12;100.00
7050;BME280;22263;52.260;10.548;2023-03-25T06:04:25;99174.19;;;8.17;100.00
7050;BME280;22263;52.260;10.548;2023-03-25T06:06:53;99176.56;;;8.15;100.00
7050;BME280;22263;52.260;10.548;2023-03-25T06:09:25;99175.38;;;8.16;100.00
7050;BME280;22263;52.260;10.548;2023-03-25T06:11:56;99174.97;;;8.25;100.00
7050;BME280;22263;52.260;10.548;2023-03-25T06:14:24;99184.44;;;8.27;100.00
7050;BME280;22263;52.260;10.548;2023-03-25T06:16:55;99173.41;;;8.27;100.00
7050;BME280;22263;52.260;10.548;2023-03-25T06:19:24;99181.28;;;8.36;100.00
7050;BME280;22263;52.260;10.548;2023-03-25T06:21:52;99175.38;;;8.45;100.00
7050;BME280;22263;52.260;10.548;2023-03-25T06:24:21;99176.94;;;8.49;100.00
7050;BME280;22263;52.260;10.548;2023-03-25T06:26:49;99171.03;;;8.58;100.00
7050;BME280;22263;52.260;10.548;2023-03-25T06:29:18;99160.00;;;8.61;100.00
7050;BME280;22263;52.260;10.548;2023-03-25T06:31:46;99169.03;;;8.72;100.00
7050;BME280;22263;52.260;10.548;2023-03-25T06:34:17;99166.22;;;8.80;100.00
7050;BME280;22263;52.260;10.548;2023-03-25T06:36:48;99165.81;;;8.88;100.00
7050;BME280;22263;52.260;10.548;2023-03-25T06:39:19;99161.84;;;8.96;100.00
7050;BME280;22263;52.260;10.548;2023-03-25T06:41:48;99167.28;;;9.07;100.00
7050;BME280;22263;52.260;10.548;2023-03-25T06:44:25;99151.16;;;9.05;100.00
7050;BME280;22263;52.260;10.548;2023-03-25T06:47:14;99159.78;;;9.14;100.00
7050;BME280;22263;52.260;10.548;2023-03-25T06:49:49;99155.78;;;9.26;100.00
7050;BME280;22263;52.260;10.548;2023-03-25T06:52:17;99147.50;;;9.26;100.00
7050;BME280;22263;52.260;10.548;2023-03-25T06:54:46;99153.38;;;9.32;100.00
7050;BME280;22263;52.260;10.548;2023-03-25T06:57:14;99140.00;;;9.34;100.00
7050;BME280;22263;52.260;10.548;2023-03-25T06:59:43;99132.50;;;9.31;100.00
7050;BME280;22263;52.260;10.548;2023-03-25T07:02:13;99143.09;;;9.36;100.00
7050;BME280;22263;52.260;10.548;2023-03-25T07:04:41;99143.88;;;9.43;100.00
7050;BME280;22263;52.260;10.548;2023-03-25T07:07:11;99145.38;;;9.51;100.00
7050;BME280;22263;52.260;10.548;2023-03-25T07:09:40;99149.31;;;9.54;100.00
7050;BME280;22263;52.260;10.548;2023-03-25T07:12:08;99135.84;;;9.63;100.00
7050;BME280;22263;52.260;10.548;2023-03-25T07:14:37;99140.53;;;9.73;100.00
7050;BME280;22263;52.260;10.548;2023-03-25T07:17:05;99128.25;;;9.78;100.00
7050;BME280;22263;52.260;10.548;2023-03-25T07:19:34;99140.00;;;9.85;100.00
7050;BME280;22263;52.260;10.548;2023-03-25T07:22:02;99146.72;;;9.84;100.00
7050;BME280;22263;52.260;10.548;2023-03-25T07:24:32;99138.03;;;9.86;100.00
7050;BME280;22263;52.260;10.548;2023-03-25T07:27:01;99149.41;;;9.95;100.00
7050;BME280;22263;52.260;10.548;2023-03-25T07:29:31;99150.53;;;10.01;100.00
7050;BME280;22263;52.260;10.548;2023-03-25T07:31:59;99138.75;;;9.93;100.00
7050;BME280;22263;52.260;10.548;2023-03-25T07:34:28;99142.25;;;10.01;100.00
7050;BME280;22263;52.260;10.548;2023-03-25T07:36:57;99135.50;;;10.05;100.00
7050;BME280;22263;52.260;10.548;2023-03-25T07:39:26;99136.69;;;10.04;100.00
7050;BME280;22263;52.260;10.548;2023-03-25T07:41:56;99145.38;;;10.03;100.00
7050;BME280;22263;52.260;10.548;2023-03-25T07:44:32;99148.94;;;10.03;100.00
7050;BME280;22263;52.260;10.548;2023-03-25T07:47:01;99142.66;;;9.99;100.00
7050;BME280;22263;52.260;10.548;2023-03-25T07:49:29;99147.47;;;9.88;100.00
7050;BME280;22263;52.260;10.548;2023-03-25T07:51:58;99141.19;;;9.84;100.00
7050;BME280;22263;52.260;10.548;2023-03-25T07:54:26;99143.13;;;9.91;100.00
7050;BME280;22263;52.260;10.548;2023-03-25T07:56:56;99137.59;;;9.91;100.00
7050;BME280;22263;52.260;10.548;2023-03-25T07:59:25;99155.31;;;9.93;100.00
7050;BME280;22263;52.260;10.548;2023-03-25T08:01:55;99145.84;;;9.94;100.00
7050;BME280;22263;52.260;10.548;2023-03-25T08:04:23;99154.50;;;10.00;100.00
7050;BME280;22263;52.260;10.548;2023-03-25T08:06:55;99152.09;;;10.05;100.00
7050;BME280;22263;52.260;10.548;2023-03-25T08:09:24;99157.50;;;10.20;100.00
7050;BME280;22263;52.260;10.548;2023-03-25T08:11:52;99149.03;;;10.37;100.00
7050;BME280;22263;52.260;10.548;2023-03-25T08:14:23;99157.81;;;10.66;100.00
7050;BME280;22263;52.260;10.548;2023-03-25T08:16:52;99150.81;;;10.58;100.00
7050;BME280;22263;52.260;10.548;2023-03-25T08:19:20;99163.06;;;10.57;100.00
7050;BME280;22263;52.260;10.548;2023-03-25T08:21:49;99153.47;;;10.65;100.00
7050;BME280;22263;52.260;10.548;2023-03-25T08:24:17;99155.09;;;10.63;100.00
7050;BME280;22263;52.260;10.548;2023-03-25T08:26:46;99160.59;;;10.66;100.00
7050;BME280;22263;52.260;10.548;2023-03-25T08:29:14;99159.31;;;10.74;100.00
7050;BME280;22263;52.260;10.548;2023-03-25T08:31:48;99155.06;;;10.66;100.00
7050;BME280;22263;52.260;10.548;2023-03-25T08:34:18;99156.91;;;10.76;100.00
7050;BME280;22263;52.260;10.548;2023-03-25T08:36:54;99149.56;;;10.97;100.00
7050;BME280;22263;52.260;10.548;2023-03-25T08:39:22;99149.47;;;11.04;100.00
7050;BME280;22263;52.260;10.548;2023-03-25T08:41:54;99156.06;;;10.83;100.00
7050;BME280;22263;52.260;10.548;2023-03-25T08:44:24;99171.50;;;10.80;100.00
7050;BME280;22263;52.260;10.548;2023-03-25T08:46:55;99152.19;;;10.77;100.00
7050;BME280;22263;52.260;10.548;2023-03-25T08:49:23;99158.84;;;10.79;100.00
7050;BME280;22263;52.260;10.548;2023-03-25T08:51:52;99162.63;;;10.96;100.00
7050;BME280;22263;52.260;10.548;2023-03-25T08:54:23;99161.59;;;11.13;100.00
7050;BME280;22263;52.260;10.548;2023-03-25T08:56:52;99149.09;;;11.32;100.00
7050;BME280;22263;52.260;10.548;2023-03-25T08:59:23;99149.63;;;11.23;100.00
7050;BME280;22263;52.260;10.548;2023-03-25T09:01:51;99141.50;;;11.09;100.00
7050;BME280;22263;52.260;10.548;2023-03-25T09:04:24;99133.38;;;11.25;100.00
7050;BME280;22263;52.260;10.548;2023-03-25T09:06:53;99141.63;;;11.29;100.00
7050;BME280;22263;52.260;10.548;2023-03-25T09:09:38;99148.09;;;11.19;100.00
7050;BME280;22263;52.260;10.548;2023-03-25T09:12:07;99141.94;;;11.08;100.00
7050;BME280;22263;52.260;10.548;2023-03-25T09:14:36;99146.72;;;11.04;100.00
7050;BME280;22263;52.260;10.548;2023-03-25T09:17:05;99158.09;;;11.09;100.00
7050;BME280;22263;52.260;10.548;2023-03-25T09:19:38;99150.69;;;11.03;100.00
7050;BME280;22263;52.260;10.548;2023-03-25T09:22:06;99151.84;;;11.05;100.00
7050;BME280;22263;52.260;10.548;2023-03-25T09:24:35;99145.50;;;11.05;100.00
7050;BME280;22263;52.260;10.548;2023-03-25T09:27:04;99148.69;;;11.03;100.00
7050;BME280;22263;52.260;10.548;2023-03-25T09:29:33;99134.38;;;11.12;100.00
7050;BME280;22263;52.260;10.548;2023-03-25T09:32:02;99156.00;;;11.20;100.00
7050;BME280;22263;52.260;10.548;2023-03-25T09:34:31;99148.22;;;11.12;100.00
7050;BME280;22263;52.260;10.548;2023-03-25T09:37:01;99145.28;;;11.22;100.00
7050;BME280;22263;52.260;10.548;2023-03-25T09:39:30;99152.50;;;11.13;100.00
7050;BME280;22263;52.260;10.548;2023-03-25T09:42:23;99161.59;;;11.13;100.00
7050;BME280;22263;52.260;10.548;2023-03-25T09:45:02;99157.78;;;11.04;100.00
7050;BME280;22263;52.260;10.548;2023-03-25T09:47:38;99166.91;;;11.01;100.00
7050;BME280;22263;52.260;10.548;2023-03-25T09:50:12;99170.88;;;11.00;100.00
7050;BME280;22263;52.260;10.548;2023-03-25T09:52:50;99197.22;;;10.77;100.00
7050;BME280;22263;52.260;10.548;2023-03-25T09:55:24;99182.16;;;10.82;100.00
7050;BME280;22263;52.260;10.548;2023-03-25T09:57:59;99188.72;;;10.95;100.00
7050;BME280;22263;52.260;10.548;2023-03-25T10:00:32;99172.00;;;11.06;100.00
7050;BME280;22263;52.260;10.548;2023-03-25T10:03:15;99168.44;;;11.35;100.00
7050;BME280;22263;52.260;10.548;2023-03-25T10:05:59;99165.16;;;11.44;100.00
7050;BME280;22263;52.260;10.548;2023-03-25T10:08:43;99167.78;;;12.08;100.00
7050;BME280;22263;52.260;10.548;2023-03-25T10:11:22;99165.16;;;12.44;100.00
7050;BME280;22263;52.260;10.548;2023-03-25T10:13:57;99163.38;;;13.88;100.00
7050;BME280;22263;52.260;10.548;2023-03-25T10:16:36;99165.53;;;14.13;100.00
7050;BME280;22263;52.260;10.548;2023-03-25T10:19:27;99146.41;;;14.31;100.00
7050;BME280;22263;52.260;10.548;2023-03-25T10:22:03;99153.19;;;14.47;100.00
7050;BME280;22263;52.260;10.548;2023-03-25T10:24:38;99159.06;;;14.65;100.00
7050;BME280;22263;52.260;10.548;2023-03-25T10:27:14;99156.63;;;14.67;100.00
7050;BME280;22263;52.260;10.548;2023-03-25T10:29:50;99142.31;;;14.20;100.00
7050;BME280;22263;52.260;10.548;2023-03-25T10:32:29;99142.16;;;13.78;100.00
7050;BME280;22263;52.260;10.548;2023-03-25T10:35:00;99135.44;;;13.43;100.00
7050;BME280;22263;52.260;10.548;2023-03-25T10:37:33;99143.94;;;13.36;100.00
7050;BME280;22263;52.260;10.548;2023-03-25T10:40:14;99142.88;;;14.15;100.00
7050;BME280;22263;52.260;10.548;2023-03-25T10:42:56;99126.19;;;14.15;100.00
7050;BME280;22263;52.260;10.548;2023-03-25T10:45:27;99131.22;;;13.71;100.00
7050;BME280;22263;52.260;10.548;2023-03-25T10:48:02;99126.25;;;13.46;100.00
7050;BME280;22263;52.260;10.548;2023-03-25T10:50:32;99128.44;;;13.55;100.00
7050;BME280;22263;52.260;10.548;2023-03-25T10:53:01;99140.16;;;13.27;100.00
7050;BME280;22263;52.260;10.548;2023-03-25T10:55:35;99126.22;;;12.91;100.00
7050;BME280;22263;52.260;10.548;2023-03-25T10:58:06;99119.75;;;12.78;100.00
7050;BME280;22263;52.260;10.548;2023-03-25T11:00:35;99112.72;;;13.13;100.00
7050;BME280;22263;52.260;10.548;2023-03-25T11:03:08;99110.63;;;13.69;100.00
7050;BME280;22263;52.260;10.548;2023-03-25T11:05:42;99115.34;;;14.04;100.00
7050;BME280;22263;52.260;10.548;2023-03-25T11:08:13;99126.28;;;13.79;100.00
7050;BME280;22263;52.260;10.548;2023-03-25T11:10:53;99124.81;;;13.38;100.00
7050;BME280;22263;52.260;10.548;2023-03-25T11:13:26;99123.84;;;13.65;100.00
7050;BME280;22263;52.260;10.548;2023-03-25T11:15:57;99130.44;;;14.03;100.00
7050;BME280;22263;52.260;10.548;2023-03-25T11:18:29;99136.00;;;14.03;100.00
7050;BME280;22263;52.260;10.548;2023-03-25T11:21:06;99126.69;;;13.77;100.00
7050;BME280;22263;52.260;10.548;2023-03-25T11:23:37;99120.16;;;13.35;100.00
7050;BME280;22263;52.260;10.548;2023-03-25T11:26:17;99148.72;;;13.16;100.00
7050;BME280;22263;52.260;10.548;2023-03-25T11:28:48;99145.44;;;12.82;100.00
7050;BME280;22263;52.260;10.548;2023-03-25T11:31:19;99156.25;;;12.33;100.00
7050;BME280;22263;52.260;10.548;2023-03-25T11:34:03;99134.88;;;12.53;100.00
7050;BME280;22263;52.260;10.548;2023-03-25T11:36:35;99137.69;;;13.13;100.00
7050;BME280;22263;52.260;10.548;2023-03-25T11:39:13;99124.63;;;13.29;100.00
7050;BME280;22263;52.260;10.548;2023-03-25T11:41:45;99114.97;;;13.70;100.00
7050;BME280;22263;52.260;10.548;2023-03-25T11:44:20;99109.03;;;13.35;100.00
7050;BME280;22263;52.260;10.548;2023-03-25T11:46:54;99120.16;;;13.35;100.00
7050;BME280;22263;52.260;10.548;2023-03-25T11:49:24;99110.56;;;13.88;100.00
7050;BME280;22263;52.260;10.548;2023-03-25T11:51:59;99112.53;;;14.36;100.00
7050;BME280;22263;52.260;10.548;2023-03-25T11:54:31;99107.41;;;14.19;99.14
7050;BME280;22263;52.260;10.548;2023-03-25T11:57:11;99093.47;;;13.90;100.00
7050;BME280;22263;52.260;10.548;2023-03-25T11:59:43;99106.03;;;13.78;100.00
7050;BME280;22263;52.260;10.548;2023-03-25T12:02:20;99100.22;;;13.57;100.00
7050;BME280;22263;52.260;10.548;2023-03-25T12:04:55;99115.56;;;13.45;100.00
7050;BME280;22263;52.260;10.548;2023-03-25T12:07:24;99094.63;;;13.40;100.00
7050;BME280;22263;52.260;10.548;2023-03-25T12:09:54;99103.47;;;13.35;100.00
7050;BME280;22263;52.260;10.548;2023-03-25T12:12:34;99100.44;;;13.30;100.00
7050;BME280;22263;52.260;10.548;2023-03-25T12:15:13;99093.75;;;13.27;100.00
7050;BME280;22263;52.260;10.548;2023-03-25T12:17:52;99091.16;;;13.36;100.00
7050;BME280;22263;52.260;10.548;2023-03-25T12:20:27;99097.41;;;13.40;100.00
7050;BME280;22263;52.260;10.548;2023-03-25T12:23:01;99088.03;;;13.18;100.00
7050;BME280;22263;52.260;10.548;2023-03-25T12:25:40;99084.47;;;12.98;100.00
7050;BME280;22263;52.260;10.548;2023-03-25T12:28:40;99079.78;;;12.95;100.00
7050;BME280;22263;52.260;10.548;2023-03-25T12:31:23;99091.50;;;12.83;100.00
7050;BME280;22263;52.260;10.548;2023-03-25T12:34:04;99077.28;;;12.81;100.00
7050;BME280;22263;52.260;10.548;2023-03-25T12:36:45;99076.28;;;12.91;100.00
7050;BME280;22263;52.260;10.548;2023-03-25T12:39:26;99066.00;;;13.07;100.00
7050;BME280;22263;52.260;10.548;2023-03-25T12:42:23;99076.91;;;13.18;100.00
7050;BME280;22263;52.260;10.548;2023-03-25T12:45:05;99066.97;;;13.85;100.00
7050;BME280;22263;52.260;10.548;2023-03-25T12:47:45;99067.44;;;14.13;100.00
7050;BME280;22263;52.260;10.548;2023-03-25T12:50:23;99069.00;;;14.59;97.88
7050;BME280;22263;52.260;10.548;2023-03-25T12:53:06;99098.34;;;14.31;94.29
7050;BME280;22263;52.260;10.548;2023-03-25T12:55:51;99057.47;;;14.73;91.01
7050;BME280;22263;52.260;10.548;2023-03-25T12:58:43;99043.41;;;15.56;83.86
7050;BME280;22263;52.260;10.548;2023-03-25T13:01:22;99058.03;;;15.94;76.81
7050;BME280;22263;52.260;10.548;2023-03-25T13:04:09;99051.00;;;16.02;74.74
7050;BME280;22263;52.260;10.548;2023-03-25T13:06:57;99061.34;;;15.30;78.14
7050;BME280;22263;52.260;10.548;2023-03-25T13:09:30;99058.09;;;15.18;86.24
7050;BME280;22263;52.260;10.548;2023-03-25T13:12:04;99047.72;;;14.94;90.81
7050;BME280;22263;52.260;10.548;2023-03-25T13:14:39;99067.38;;;14.74;92.55
7050;BME280;22263;52.260;10.548;2023-03-25T13:17:21;99066.00;;;13.92;100.00
7050;BME280;22263;52.260;10.548;2023-03-25T13:19:55;99072.16;;;13.67;100.00
7050;BME280;22263;52.260;10.548;2023-03-25T13:22:31;99101.03;;;13.01;100.00
7050;BME280;22263;52.260;10.548;2023-03-25T13:25:04;99081.63;;;12.62;100.00
7050;BME280;22263;52.260;10.548;2023-03-25T13:27:39;99075.81;;;12.56;100.00